sensor_id;sensor_type;location;lat;lon;timestamp;pressure;altitude;pressure_sealevel;temperature;humidity
59493;BME280;45497;43.996;22.876;2023-03-25T00:01:04;100740.97;;;10.70;49.29
59493;BME280;45497;43.996;22.876;2023-03-25T00:03:38;100739.47;;;10.67;49.34
59493;BME280;45497;43.996;22.876;2023-03-25T00:06:08;100732.38;;;10.60;49.21
59493;BME280;45497;43.996;22.876;2023-03-25T00:08:35;100736.34;;;10.56;49.50
59493;BME280;45497;43.996;22.876;2023-03-25T00:11:02;100737.34;;;10.55;49.63
59493;BME280;45497;43.996;22.876;2023-03-25T00:13:33;100741.19;;;10.52;49.76
59493;BME280;45497;43.996;22.876;2023-03-25T00:15:59;100741.84;;;10.38;49.98
59493;BME280;45497;43.996;22.876;2023-03-25T00:18:28;100739.38;;;10.44;49.96
59493;BME280;45497;43.996;22.876;2023-03-25T00:20:59;100741.34;;;10.18;50.38
59493;BME280;45497;43.996;22.876;2023-03-25T00:23:26;100741.84;;;10.21;50.67
59493;BME280;45497;43.996;22.876;2023-03-25T00:25:52;100740.50;;;10.25;50.44
59493;BME280;45497;43.996;22.876;2023-03-25T00:28:18;100737.53;;;10.37;50.15
59493;BME280;45497;43.996;22.876;2023-03-25T00:30:44;100736.72;;;10.36;49.90
59493;BME280;45497;43.996;22.876;2023-03-25T00:33:10;100721.63;;;10.20;50.53
59493;BME280;45497;43.996;22.876;2023-03-25T00:35:40;100717.50;;;10.26;50.03
59493;BME280;45497;43.996;22.876;2023-03-25T00:38:28;100704.94;;;10.36;49.69
59493;BME280;45497;43.996;22.876;2023-03-25T00:43:42;100711.38;;;10.42;50.02
59493;BME280;45497;43.996;22.876;2023-03-25T00:46:08;100707.88;;;10.49;49.88
59493;BME280;45497;43.996;22.876;2023-03-25T00:48:33;100705.91;;;10.43;49.63
59493;BME280;45497;43.996;22.876;2023-03-25T00:50:59;100694.31;;;10.36;50.00
59493;BME280;45497;43.996;22.876;2023-03-25T00:53:32;100688.50;;;10.24;50.40
59493;BME280;45497;43.996;22.876;2023-03-25T00:55:58;100692.16;;;10.23;50.59
59493;BME280;45497;43.996;22.876;2023-03-25T00:58:25;100692.81;;;10.25;50.33
59493;BME280;45497;43.996;22.876;2023-03-25T01:00:51;100691.03;;;10.09;50.93
59493;BME280;45497;43.996;22.876;2023-03-25T01:03:16;100696.97;;;10.11;50.70
59493;BME280;45497;43.996;22.876;2023-03-25T01:05:42;100698.78;;;10.03;50.88
59493;BME280;45497;43.996;22.876;2023-03-25T01:08:08;100697.00;;;10.03;51.05
59493;BME280;45497;43.996;22.876;2023-03-25T01:10:35;100690.69;;;10.04;51.05
59493;BME280;45497;43.996;22.876;2023-03-25T01:13:01;100690.34;;;10.24;50.06
59493;BME280;45497;43.996;22.876;2023-03-25T01:15:26;100685.22;;;10.22;50.23
59493;BME280;45497;43.996;22.876;2023-03-25T01:17:52;100690.38;;;10.16;50.81
59493;BME280;45497;43.996;22.876;2023-03-25T01:20:17;100689.22;;;10.02;51.28
59493;BME280;45497;43.996;22.876;2023-03-25T01:22:43;100684.75;;;9.94;51.28
59493;BME280;45497;43.996;22.876;2023-03-25T01:25:08;100689.38;;;9.92;51.19
59493;BME280;45497;43.996;22.876;2023-03-25T01:27:34;100699.31;;;9.82;51.74
59493;BME280;45497;43.996;22.876;2023-03-25T01:30:00;100702.13;;;9.72;51.71
59493;BME280;45497;43.996;22.876;2023-03-25T01:32:27;100689.88;;;9.54;52.25
59493;BME280;45497;43.996;22.876;2023-03-25T01:34:53;100691.34;;;9.57;52.14
59493;BME280;45497;43.996;22.876;2023-03-25T01:37:18;100682.44;;;9.66;51.55
59493;BME280;45497;43.996;22.876;2023-03-25T01:39:44;100682.09;;;9.69;51.69
59493;BME280;45497;43.996;22.876;2023-03-25T01:42:11;100688.06;;;9.71;51.45
59493;BME280;45497;43.996;22.876;2023-03-25T01:47:02;100679.94;;;9.65;52.08
59493;BME280;45497;43.996;22.876;2023-03-25T01:49:33;100673.66;;;9.57;51.79
59493;BME280;45497;43.996;22.876;2023-03-25T01:52:23;100671.19;;;9.64;51.93
59493;BME280;45497;43.996;22.876;2023-03-25T01:54:51;100667.69;;;9.55;51.76
59493;BME280;45497;43.996;22.876;2023-03-25T01:57:19;100666.06;;;9.54;51.71
59493;BME280;45497;43.996;22.876;2023-03-25T01:59:46;100669.88;;;9.60;51.76
59493;BME280;45497;43.996;22.876;2023-03-25T02:02:14;100666.22;;;9.61;51.72
59493;BME280;45497;43.996;22.876;2023-03-25T02:04:55;100657.28;;;9.62;51.98
59493;BME280;45497;43.996;22.876;2023-03-25T02:07:26;100659.25;;;9.68;51.40
59493;BME280;45497;43.996;22.876;2023-03-25T02:09:56;100658.44;;;9.68;51.75
59493;BME280;45497;43.996;22.876;2023-03-25T02:12:23;100667.53;;;9.57;51.42
59493;BME280;45497;43.996;22.876;2023-03-25T02:14:49;100664.22;;;9.47;52.11
59493;BME280;45497;43.996;22.876;2023-03-25T02:44:39;100652.28;;;9.26;52.40
59493;BME280;45497;43.996;22.876;2023-03-25T02:47:14;100652.47;;;9.41;51.68
59493;BME280;45497;43.996;22.876;2023-03-25T02:49:47;100651.31;;;9.35;52.36
59493;BME280;45497;43.996;22.876;2023-03-25T02:52:28;100652.28;;;9.34;52.05
59493;BME280;45497;43.996;22.876;2023-03-25T02:54:57;100654.28;;;9.32;52.11
59493;BME280;45497;43.996;22.876;2023-03-25T02:57:27;100646.34;;;9.32;51.65
59493;BME280;45497;43.996;22.876;2023-03-25T02:59:53;100650.16;;;9.30;52.19
59493;BME280;45497;43.996;22.876;2023-03-25T03:02:21;100646.84;;;9.28;52.37
59493;BME280;45497;43.996;22.876;2023-03-25T03:04:55;100648.63;;;9.11;53.09
59493;BME280;45497;43.996;22.876;2023-03-25T03:07:24;100651.78;;;9.23;52.70
59493;BME280;45497;43.996;22.876;2023-03-25T03:15:25;100648.66;;;9.35;52.37
59493;BME280;45497;43.996;22.876;2023-03-25T03:21:07;100645.88;;;9.53;51.35
59493;BME280;45497;43.996;22.876;2023-03-25T03:24:01;100643.53;;;9.50;51.69
59493;BME280;45497;43.996;22.876;2023-03-25T03:29:15;100643.06;;;9.55;51.20
59493;BME280;45497;43.996;22.876;2023-03-25T03:32:01;100644.41;;;9.67;50.93
59493;BME280;45497;43.996;22.876;2023-03-25T03:34:34;100657.59;;;9.75;50.97
59493;BME280;45497;43.996;22.876;2023-03-25T03:37:06;100652.50;;;9.82;50.86
59493;BME280;45497;43.996;22.876;2023-03-25T03:39:34;100661.41;;;9.81;50.49
59493;BME280;45497;43.996;22.876;2023-03-25T03:42:22;100667.53;;;9.90;50.38
59493;BME280;45497;43.996;22.876;2023-03-25T03:44:52;100667.69;;;9.97;50.59
59493;BME280;45497;43.996;22.876;2023-03-25T03:47:24;100662.91;;;9.92;50.19
59493;BME280;45497;43.996;22.876;2023-03-25T03:49:58;100664.88;;;9.98;50.56
59493;BME280;45497;43.996;22.876;2023-03-25T03:52:49;100655.78;;;10.01;50.05
59493;BME280;45497;43.996;22.876;2023-03-25T03:55:25;100664.38;;;10.03;50.48
59493;BME280;45497;43.996;22.876;2023-03-25T03:58:01;100672.66;;;10.08;50.11
59493;BME280;45497;43.996;22.876;2023-03-25T04:00:56;100667.22;;;10.01;49.82
59493;BME280;45497;43.996;22.876;2023-03-25T04:03:35;100663.09;;;9.90;50.03
59493;BME280;45497;43.996;22.876;2023-03-25T04:06:12;100667.38;;;9.91;50.38
59493;BME280;45497;43.996;22.876;2023-03-25T04:11:27;100672.34;;;9.78;51.05
59493;BME280;45497;43.996;22.876;2023-03-25T04:13:57;100676.00;;;9.85;50.92
59493;BME280;45497;43.996;22.876;2023-03-25T04:16:24;100676.31;;;9.82;51.37
59493;BME280;45497;43.996;22.876;2023-03-25T04:18:49;100673.50;;;9.84;50.99
59493;BME280;45497;43.996;22.876;2023-03-25T04:21:19;100672.84;;;9.73;51.13
59493;BME280;45497;43.996;22.876;2023-03-25T04:23:45;100676.31;;;9.82;50.99
59493;BME280;45497;43.996;22.876;2023-03-25T04:26:12;100681.59;;;9.82;50.91
59493;BME280;45497;43.996;22.876;2023-03-25T04:28:38;100676.81;;;9.86;50.79
59493;BME280;45497;43.996;22.876;2023-03-25T04:31:16;100680.78;;;9.82;50.71
59493;BME280;45497;43.996;22.876;2023-03-25T04:33:44;100674.16;;;9.61;51.42
59493;BME280;45497;43.996;22.876;2023-03-25T04:36:14;100681.25;;;9.52;51.44
59493;BME280;45497;43.996;22.876;2023-03-25T04:38:40;100685.56;;;9.53;51.28
59493;BME280;45497;43.996;22.876;2023-03-25T04:41:11;100687.38;;;9.45;51.50
59493;BME280;45497;43.996;22.876;2023-03-25T04:43:36;100679.28;;;9.54;51.30
59493;BME280;45497;43.996;22.876;2023-03-25T04:46:04;100693.97;;;9.49;52.12
59493;BME280;45497;43.996;22.876;2023-03-25T04:48:33;100699.13;;;9.50;51.91
59493;BME280;45497;43.996;22.876;2023-03-25T04:51:00;100700.09;;;9.33;52.03
59493;BME280;45497;43.996;22.876;2023-03-25T04:53:28;100712.00;;;9.37;52.10
59493;BME280;45497;43.996;22.876;2023-03-25T04:55:54;100711.34;;;9.35;52.05
59493;BME280;45497;43.996;22.876;2023-03-25T04:58:20;100713.81;;;9.36;51.94
59493;BME280;45497;43.996;22.876;2023-03-25T05:00:48;100703.25;;;9.36;52.43
59493;BME280;45497;43.996;22.876;2023-03-25T05:03:15;100705.69;;;9.38;52.57
59493;BME280;45497;43.996;22.876;2023-03-25T05:05:40;100711.34;;;9.35;52.36
59493;BME280;45497;43.996;22.876;2023-03-25T05:08:06;100716.13;;;9.31;52.82
59493;BME280;45497;43.996;22.876;2023-03-25T05:10:32;100712.81;;;9.37;52.27
59493;BME280;45497;43.996;22.876;2023-03-25T05:13:04;100712.19;;;9.44;52.75
59493;BME280;45497;43.996;22.876;2023-03-25T05:15:31;100720.44;;;9.49;52.26
59493;BME280;45497;43.996;22.876;2023-03-25T05:17:59;100709.53;;;9.52;52.47
59493;BME280;45497;43.996;22.876;2023-03-25T05:20:26;100706.75;;;9.70;52.19
59493;BME280;45497;43.996;22.876;2023-03-25T05:22:51;100709.56;;;9.76;51.73
59493;BME280;45497;43.996;22.876;2023-03-25T05:25:17;100702.63;;;9.92;51.96
59493;BME280;45497;43.996;22.876;2023-03-25T05:27:46;100709.06;;;10.14;51.51
59493;BME280;45497;43.996;22.876;2023-03-25T05:30:12;100696.97;;;10.36;51.39
59493;BME280;45497;43.996;22.876;2023-03-25T05:32:38;100696.25;;;10.59;50.77
59493;BME280;45497;43.996;22.876;2023-03-25T05:35:05;100708.44;;;10.76;50.48
59493;BME280;45497;43.996;22.876;2023-03-25T05:37:31;100695.13;;;10.93;50.40
59493;BME280;45497;43.996;22.876;2023-03-25T05:39:56;100675.81;;;11.07;50.42
59493;BME280;45497;43.996;22.876;2023-03-25T05:42:22;100681.72;;;11.25;50.31
59493;BME280;45497;43.996;22.876;2023-03-25T05:44:49;100686.28;;;11.40;50.01
59493;BME280;45497;43.996;22.876;2023-03-25T05:47:22;100677.47;;;11.62;49.80
59493;BME280;45497;43.996;22.876;2023-03-25T05:49:48;100678.59;;;11.68;49.57
59493;BME280;45497;43.996;22.876;2023-03-25T05:52:15;100672.78;;;11.88;49.49
59493;BME280;45497;43.996;22.876;2023-03-25T05:54:44;100674.16;;;12.07;49.14
59493;BME280;45497;43.996;22.876;2023-03-25T05:57:11;100669.22;;;12.33;48.82
59493;BME280;45497;43.996;22.876;2023-03-25T05:59:37;100680.50;;;12.50;48.26
59493;BME280;45497;43.996;22.876;2023-03-25T06:02:11;100687.38;;;12.59;48.41
59493;BME280;45497;43.996;22.876;2023-03-25T06:04:37;100689.19;;;12.74;47.94
59493;BME280;45497;43.996;22.876;2023-03-25T06:07:12;100682.88;;;12.90;47.80
59493;BME280;45497;43.996;22.876;2023-03-25T06:09:48;100671.72;;;13.01;47.66
59493;BME280;45497;43.996;22.876;2023-03-25T06:12:15;100675.94;;;13.10;47.20
59493;BME280;45497;43.996;22.876;2023-03-25T06:14:42;100676.81;;;13.17;47.07
59493;BME280;45497;43.996;22.876;2023-03-25T06:17:11;100675.00;;;13.33;46.88
59493;BME280;45497;43.996;22.876;2023-03-25T06:19:37;100675.69;;;13.42;47.18
59493;BME280;45497;43.996;22.876;2023-03-25T06:22:09;100675.38;;;13.51;47.47
59493;BME280;45497;43.996;22.876;2023-03-25T06:24:36;100685.75;;;13.68;47.57
59493;BME280;45497;43.996;22.876;2023-03-25T06:27:02;100690.72;;;13.71;47.48
59493;BME280;45497;43.996;22.876;2023-03-25T06:29:28;100686.84;;;13.73;47.21
59493;BME280;45497;43.996;22.876;2023-03-25T06:31:54;100693.66;;;13.83;47.00
59493;BME280;45497;43.996;22.876;2023-03-25T06:34:19;100699.88;;;13.90;46.39
59493;BME280;45497;43.996;22.876;2023-03-25T06:36:45;100698.09;;;13.97;46.62
59493;BME280;45497;43.996;22.876;2023-03-25T06:39:15;100695.69;;;14.02;46.39
59493;BME280;45497;43.996;22.876;2023-03-25T06:41:41;100687.31;;;14.05;46.21
59493;BME280;45497;43.996;22.876;2023-03-25T06:44:06;100702.38;;;14.20;46.48
59493;BME280;45497;43.996;22.876;2023-03-25T06:46:32;100704.06;;;14.27;45.95
59493;BME280;45497;43.996;22.876;2023-03-25T06:48:57;100698.22;;;14.39;46.05
59493;BME280;45497;43.996;22.876;2023-03-25T06:51:23;100700.56;;;14.55;45.58
59493;BME280;45497;43.996;22.876;2023-03-25T06:53:48;100692.22;;;14.65;45.57
59493;BME280;45497;43.996;22.876;2023-03-25T06:56:14;100703.00;;;14.85;45.30
59493;BME280;45497;43.996;22.876;2023-03-25T06:58:39;100695.25;;;15.03;45.12
59493;BME280;45497;43.996;22.876;2023-03-25T07:01:06;100686.94;;;15.20;44.93
59493;BME280;45497;43.996;22.876;2023-03-25T07:03:36;100688.38;;;15.36;44.35
59493;BME280;45497;43.996;22.876;2023-03-25T07:06:01;100697.88;;;15.52;43.77
59493;BME280;45497;43.996;22.876;2023-03-25T07:08:27;100690.09;;;15.63;43.35
59493;BME280;45497;43.996;22.876;2023-03-25T07:10:52;100681.28;;;15.83;43.13
59493;BME280;45497;43.996;22.876;2023-03-25T07:13:18;100696.69;;;16.08;42.72
59493;BME280;45497;43.996;22.876;2023-03-25T07:15:43;100696.06;;;16.25;42.42
59493;BME280;45497;43.996;22.876;2023-03-25T07:18:10;100694.00;;;16.34;42.70
59493;BME280;45497;43.996;22.876;2023-03-25T07:20:35;100680.22;;;16.44;42.17
59493;BME280;45497;43.996;22.876;2023-03-25T07:23:00;100686.97;;;16.53;42.10
59493;BME280;45497;43.996;22.876;2023-03-25T07:25:26;100679.09;;;16.65;41.86
59493;BME280;45497;43.996;22.876;2023-03-25T07:27:52;100672.91;;;16.71;41.76
59493;BME280;45497;43.996;22.876;2023-03-25T07:30:17;100684.22;;;16.73;41.42
59493;BME280;45497;43.996;22.876;2023-03-25T07:32:46;100688.31;;;16.82;41.32
59493;BME280;45497;43.996;22.876;2023-03-25T07:35:11;100684.19;;;16.87;41.11
59493;BME280;45497;43.996;22.876;2023-03-25T07:37:37;100690.16;;;16.95;41.84
59493;BME280;45497;43.996;22.876;2023-03-25T07:40:03;100689.94;;;16.97;41.24
59493;BME280;45497;43.996;22.876;2023-03-25T07:42:28;100683.09;;;17.08;41.06
59493;BME280;45497;43.996;22.876;2023-03-25T07:44:54;100687.94;;;17.24;41.14
59493;BME280;45497;43.996;22.876;2023-03-25T07:47:19;100675.53;;;17.30;40.51
59493;BME280;45497;43.996;22.876;2023-03-25T07:49:45;100684.56;;;17.35;41.26
59493;BME280;45497;43.996;22.876;2023-03-25T07:52:12;100680.78;;;17.50;40.75
59493;BME280;45497;43.996;22.876;2023-03-25T07:54:37;100680.47;;;17.65;40.35
59493;BME280;45497;43.996;22.876;2023-03-25T07:57:03;100688.91;;;17.68;40.28
59493;BME280;45497;43.996;22.876;2023-03-25T07:59:28;100677.63;;;17.85;39.36
59493;BME280;45497;43.996;22.876;2023-03-25T08:01:54;100677.53;;;17.98;39.34
59493;BME280;45497;43.996;22.876;2023-03-25T08:04:19;100673.63;;;18.01;39.74
59493;BME280;45497;43.996;22.876;2023-03-25T08:06:45;100670.84;;;18.07;39.19
59493;BME280;45497;43.996;22.876;2023-03-25T08:09:10;100674.09;;;18.16;38.95
59493;BME280;45497;43.996;22.876;2023-03-25T08:11:36;100665.38;;;18.21;38.75
59493;BME280;45497;43.996;22.876;2023-03-25T08:14:01;100673.97;;;18.29;38.56
59493;BME280;45497;43.996;22.876;2023-03-25T08:16:28;100661.22;;;18.25;38.45
59493;BME280;45497;43.996;22.876;2023-03-25T08:18:53;100662.41;;;18.29;38.54
59493;BME280;45497;43.996;22.876;2023-03-25T08:21:19;100670.59;;;18.34;38.61
59493;BME280;45497;43.996;22.876;2023-03-25T08:23:53;100661.22;;;18.43;38.23
59493;BME280;45497;43.996;22.876;2023-03-25T08:26:24;100659.06;;;18.52;37.93
59493;BME280;45497;43.996;22.876;2023-03-25T08:28:50;100664.00;;;18.55;37.77
59493;BME280;45497;43.996;22.876;2023-03-25T08:31:15;100662.03;;;18.62;37.63
59493;BME280;45497;43.996;22.876;2023-03-25T08:33:41;100650.25;;;18.63;37.60
59493;BME280;45497;43.996;22.876;2023-03-25T08:36:09;100645.16;;;18.73;37.56
59493;BME280;45497;43.996;22.876;2023-03-25T08:38:38;100638.41;;;18.71;37.54
59493;BME280;45497;43.996;22.876;2023-03-25T08:41:03;100638.69;;;18.81;37.61
59493;BME280;45497;43.996;22.876;2023-03-25T08:43:29;100633.75;;;18.97;37.79
59493;BME280;45497;43.996;22.876;2023-03-25T08:45:55;100632.47;;;18.99;37.92
59493;BME280;45497;43.996;22.876;2023-03-25T08:48:20;100638.25;;;19.15;37.95
59493;BME280;45497;43.996;22.876;2023-03-25T08:50:46;100630.56;;;19.30;37.81
59493;BME280;45497;43.996;22.876;2023-03-25T08:53:12;100634.25;;;19.36;37.82
59493;BME280;45497;43.996;22.876;2023-03-25T08:55:37;100627.00;;;19.48;37.86
59493;BME280;45497;43.996;22.876;2023-03-25T08:58:04;100633.22;;;19.60;38.09
59493;BME280;45497;43.996;22.876;2023-03-25T09:00:30;100636.47;;;19.62;38.16
59493;BME280;45497;43.996;22.876;2023-03-25T09:02:56;100641.63;;;19.64;38.18
59493;BME280;45497;43.996;22.876;2023-03-25T09:05:23;100633.41;;;19.77;37.76
59493;BME280;45497;43.996;22.876;2023-03-25T09:07:49;100634.78;;;19.80;37.74
59493;BME280;45497;43.996;22.876;2023-03-25T09:10:15;100623.91;;;19.86;37.88
59493;BME280;45497;43.996;22.876;2023-03-25T09:12:41;100616.06;;;19.97;37.70
59493;BME280;45497;43.996;22.876;2023-03-25T09:15:07;100606.72;;;19.99;37.82
59493;BME280;45497;43.996;22.876;2023-03-25T09:17:33;100616.19;;;20.02;37.44
59493;BME280;45497;43.996;22.876;2023-03-25T09:19:59;100609.38;;;20.11;37.35
59493;BME280;45497;43.996;22.876;2023-03-25T09:22:25;100604.25;;;20.10;37.28
59493;BME280;45497;43.996;22.876;2023-03-25T09:24:50;100618.03;;;20.25;37.39
59493;BME280;45497;43.996;22.876;2023-03-25T09:27:15;100604.22;;;20.33;37.30
59493;BME280;45497;43.996;22.876;2023-03-25T09:29:41;100600.00;;;20.37;37.47
59493;BME280;45497;43.996;22.876;2023-03-25T09:32:06;100599.13;;;20.49;37.22
59493;BME280;45497;43.996;22.876;2023-03-25T09:34:33;100600.16;;;20.59;37.22
59493;BME280;45497;43.996;22.876;2023-03-25T09:36:59;100602.28;;;20.69;37.07
59493;BME280;45497;43.996;22.876;2023-03-25T09:39:25;100593.63;;;20.67;37.15
59493;BME280;45497;43.996;22.876;2023-03-25T09:47:23;100578.34;;;21.02;36.87
59493;BME280;45497;43.996;22.876;2023-03-25T09:49:54;100578.13;;;21.03;36.76
59493;BME280;45497;43.996;22.876;2023-03-25T09:52:26;100576.06;;;21.10;36.92
59493;BME280;45497;43.996;22.876;2023-03-25T09:55:02;100576.88;;;21.28;36.80
59493;BME280;45497;43.996;22.876;2023-03-25T09:57:30;100583.59;;;21.42;36.56
59493;BME280;45497;43.996;22.876;2023-03-25T09:59:59;100569.00;;;21.55;36.60
59493;BME280;45497;43.996;22.876;2023-03-25T10:03:01;100569.22;;;21.70;36.53
59493;BME280;45497;43.996;22.876;2023-03-25T10:05:47;100568.66;;;21.68;36.59
59493;BME280;45497;43.996;22.876;2023-03-25T10:08:43;100567.41;;;21.76;36.49
59493;BME280;45497;43.996;22.876;2023-03-25T10:14:11;100558.59;;;21.81;36.39
59493;BME280;45497;43.996;22.876;2023-03-25T10:21:58;100548.63;;;22.03;35.89
59493;BME280;45497;43.996;22.876;2023-03-25T10:24:31;100551.84;;;22.22;35.61
59493;BME280;45497;43.996;22.876;2023-03-25T10:27:12;100539.31;;;22.33;35.32
59493;BME280;45497;43.996;22.876;2023-03-25T10:30:03;100541.06;;;22.44;35.23
59493;BME280;45497;43.996;22.876;2023-03-25T10:32:39;100545.38;;;22.45;34.93
59493;BME280;45497;43.996;22.876;2023-03-25T10:35:12;100539.22;;;22.50;34.84
59493;BME280;45497;43.996;22.876;2023-03-25T10:37:41;100533.63;;;22.57;34.66
59493;BME280;45497;43.996;22.876;2023-03-25T10:40:18;100534.19;;;22.59;34.56
59493;BME280;45497;43.996;22.876;2023-03-25T10:45:53;100524.84;;;22.71;34.26
59493;BME280;45497;43.996;22.876;2023-03-25T10:48:24;100528.59;;;22.70;34.94
59493;BME280;45497;43.996;22.876;2023-03-25T10:51:07;100527.66;;;22.55;35.08
59493;BME280;45497;43.996;22.876;2023-03-25T10:53:34;100525.97;;;22.48;35.06
59493;BME280;45497;43.996;22.876;2023-03-25T10:56:06;100527.38;;;22.56;35.10
59493;BME280;45497;43.996;22.876;2023-03-25T10:58:33;100517.03;;;22.48;35.34
59493;BME280;45497;43.996;22.876;2023-03-25T11:01:09;100520.00;;;22.74;35.05
59493;BME280;45497;43.996;22.876;2023-03-25T11:03:40;100518.75;;;22.86;34.67
59493;BME280;45497;43.996;22.876;2023-03-25T11:06:07;100508.88;;;22.70;34.81
59493;BME280;45497;43.996;22.876;2023-03-25T11:11:41;100516.19;;;22.69;34.13
59493;BME280;45497;43.996;22.876;2023-03-25T11:14:07;100502.00;;;22.84;33.64
59493;BME280;45497;43.996;22.876;2023-03-25T11:16:51;100508.72;;;23.09;33.13
59493;BME280;45497;43.996;22.876;2023-03-25T11:21:56;100503.50;;;23.02;31.66
59493;BME280;45497;43.996;22.876;2023-03-25T11:24:29;100485.66;;;23.01;31.78
59493;BME280;45497;43.996;22.876;2023-03-25T11:26:55;100490.47;;;22.94;31.46
59493;BME280;45497;43.996;22.876;2023-03-25T11:29:23;100488.06;;;23.03;31.36
59493;BME280;45497;43.996;22.876;2023-03-25T11:32:04;100487.94;;;23.15;31.35
59493;BME280;45497;43.996;22.876;2023-03-25T11:34:30;100476.38;;;23.24;31.27
59493;BME280;45497;43.996;22.876;2023-03-25T11:37:12;100483.88;;;23.12;31.27
59493;BME280;45497;43.996;22.876;2023-03-25T11:39:41;100489.38;;;22.95;30.88
59493;BME280;45497;43.996;22.876;2023-03-25T11:42:18;100474.56;;;22.70;30.88
59493;BME280;45497;43.996;22.876;2023-03-25T11:44:50;100477.75;;;22.62;30.89
59493;BME280;45497;43.996;22.876;2023-03-25T11:47:21;100475.75;;;22.80;30.35
59493;BME280;45497;43.996;22.876;2023-03-25T11:49:51;100459.53;;;22.52;30.84
59493;BME280;45497;43.996;22.876;2023-03-25T11:52:21;100470.94;;;22.55;31.02
59493;BME280;45497;43.996;22.876;2023-03-25T11:54:48;100453.94;;;22.59;30.95
59493;BME280;45497;43.996;22.876;2023-03-25T11:57:21;100453.34;;;22.84;30.91
59493;BME280;45497;43.996;22.876;2023-03-25T11:59:48;100458.78;;;22.89;30.18
59493;BME280;45497;43.996;22.876;2023-03-25T12:02:21;100452.88;;;22.93;30.31
59493;BME280;45497;43.996;22.876;2023-03-25T12:07:27;100447.53;;;23.03;30.49
59493;BME280;45497;43.996;22.876;2023-03-25T12:09:55;100439.22;;;23.09;30.59
59493;BME280;45497;43.996;22.876;2023-03-25T12:20:33;100425.69;;;23.04;30.79
59493;BME280;45497;43.996;22.876;2023-03-25T12:25:52;100415.81;;;23.25;30.76
59493;BME280;45497;43.996;22.876;2023-03-25T12:34:21;100417.25;;;23.43;30.53
59493;BME280;45497;43.996;22.876;2023-03-25T12:36:57;100420.75;;;23.39;30.73
59493;BME280;45497;43.996;22.876;2023-03-25T12:39:33;100420.81;;;23.49;30.58
59493;BME280;45497;43.996;22.876;2023-03-25T12:42:15;100410.88;;;23.70;29.77
59493;BME280;45497;43.996;22.876;2023-03-25T12:45:16;100420.50;;;23.45;29.30
59493;BME280;45497;43.996;22.876;2023-03-25T12:47:54;100405.13;;;23.56;29.07
59493;BME280;45497;43.996;22.876;2023-03-25T12:50:43;100398.09;;;23.50;29.01
59493;BME280;45497;43.996;22.876;2023-03-25T12:58:48;100398.59;;;23.47;29.10
59493;BME280;45497;43.996;22.876;2023-03-25T13:01:18;100405.56;;;23.33;29.61
59493;BME280;45497;43.996;22.876;2023-03-25T13:09:05;100392.50;;;23.14;29.66
59493;BME280;45497;43.996;22.876;2023-03-25T13:11:44;100392.88;;;22.96;29.68
59493;BME280;45497;43.996;22.876;2023-03-25T13:14:16;100391.94;;;22.75;29.52
59493;BME280;45497;43.996;22.876;2023-03-25T13:16:44;100392.59;;;22.55;30.14
59493;BME280;45497;43.996;22.876;2023-03-25T13:19:12;100395.19;;;22.17;29.96
59493;BME280;45497;43.996;22.876;2023-03-25T13:21:44;100405.19;;;22.17;30.41
59493;BME280;45497;43.996;22.876;2023-03-25T13:24:19;100398.59;;;22.29;30.14
59493;BME280;45497;43.996;22.876;2023-03-25T13:26:49;100387.28;;;22.38;30.07
59493;BME280;45497;43.996;22.876;2023-03-25T13:31:48;100388.69;;;22.18;30.36
59493;BME280;45497;43.996;22.876;2023-03-25T13:34:34;100383.06;;;22.47;30.01
59493;BME280;45497;43.996;22.876;2023-03-25T13:37:29;100380.59;;;22.45;29.36
59493;BME280;45497;43.996;22.876;2023-03-25T13:45:18;100386.19;;;22.33;29.28
59493;BME280;45497;43.996;22.876;2023-03-25T13:47:57;100371.50;;;22.24;29.68
59493;BME280;45497;43.996;22.876;2023-03-25T13:50:28;100371.34;;;22.36;29.44
59493;BME280;45497;43.996;22.876;2023-03-25T13:55:45;100371.63;;;22.35;30.14
59493;BME280;45497;43.996;22.876;2023-03-25T14:01:24;100363.41;;;22.24;30.65
59493;BME280;45497;43.996;22.876;2023-03-25T14:06:46;100366.47;;;22.06;31.03
59493;BME280;45497;43.996;22.876;2023-03-25T14:13:04;100367.03;;;21.86;31.39
59493;BME280;45497;43.996;22.876;2023-03-25T14:15:39;100369.91;;;21.74;31.90
59493;BME280;45497;43.996;22.876;2023-03-25T14:18:15;100366.03;;;21.65;32.15
59493;BME280;45497;43.996;22.876;2023-03-25T14:20:41;100356.31;;;21.25;32.17
59493;BME280;45497;43.996;22.876;2023-03-25T14:23:13;100353.81;;;21.18;32.76
59493;BME280;45497;43.996;22.876;2023-03-25T14:25:47;100360.66;;;21.26;32.62
59493;BME280;45497;43.996;22.876;2023-03-25T14:28:38;100360.34;;;21.22;32.82
59493;BME280;45497;43.996;22.876;2023-03-25T14:31:27;100350.81;;;21.14;32.90
59493;BME280;45497;43.996;22.876;2023-03-25T14:42:01;100360.34;;;21.44;32.99
59493;BME280;45497;43.996;22.876;2023-03-25T14:44:30;100356.44;;;21.35;33.25
59493;BME280;45497;43.996;22.876;2023-03-25T14:47:02;100356.69;;;21.33;33.33
59493;BME280;45497;43.996;22.876;2023-03-25T14:49:52;100355.25;;;21.26;33.62
59493;BME280;45497;43.996;22.876;2023-03-25T14:52:40;100355.03;;;21.49;33.45
59493;BME280;45497;43.996;22.876;2023-03-25T14:55:24;100363.19;;;21.54;33.38
59493;BME280;45497;43.996;22.876;2023-03-25T14:57:57;100349.47;;;21.39;33.35
59493;BME280;45497;43.996;22.876;2023-03-25T15:00:27;100360.94;;;21.46;33.60
59493;BME280;45497;43.996;22.876;2023-03-25T15:03:14;100346.78;;;21.56;33.56
59493;BME280;45497;43.996;22.876;2023-03-25T15:05:42;100345.44;;;21.58;33.58